createdAt,value
2023-04-21T00:01:39.691Z,97988.63
2023-04-21T00:04:07.473Z,97982.84
2023-04-21T00:06:34.389Z,97992.00
2023-04-21T00:11:32.864Z,97990.25
2023-04-21T00:16:30.931Z,97980.41
2023-04-21T00:18:57.756Z,97979.63
2023-04-21T00:21:24.401Z,97980.91
2023-04-21T00:23:51.134Z,97982.19
2023-04-21T00:26:17.806Z,97969.13
2023-04-21T00:28:44.427Z,97968.28
2023-04-21T00:31:11.233Z,97967.59
2023-04-21T00:33:37.988Z,97967.16
2023-04-21T00:36:04.950Z,97973.19
2023-04-21T00:38:31.591Z,97968.78
2023-04-21T00:40:58.332Z,97961.59
2023-04-21T00:43:26.003Z,97959.91
2023-04-21T00:45:52.740Z,97966.56
2023-04-21T00:48:19.422Z,97968.41
2023-04-21T00:50:46.630Z,97967.88
2023-04-21T00:53:15.391Z,97956.72
2023-04-21T00:55:42.628Z,97961.91
2023-04-21T00:58:09.315Z,97953.88
2023-04-21T01:00:36.655Z,97956.94
2023-04-21T01:03:04.948Z,97946.59
2023-04-21T01:05:32.176Z,97944.50
2023-04-21T01:10:36.178Z,97945.69
2023-04-21T01:13:03.510Z,97956.41
2023-04-21T01:15:31.504Z,97948.22
2023-04-21T01:17:58.513Z,97938.22
2023-04-21T01:20:25.275Z,97938.00
2023-04-21T01:22:51.939Z,97933.75
2023-04-21T01:25:19.070Z,97935.78
2023-04-21T01:27:45.774Z,97937.47
2023-04-21T01:32:44.015Z,97931.72
2023-04-21T01:35:10.708Z,97941.31
2023-04-21T01:37:37.393Z,97938.06
2023-04-21T01:40:07.538Z,97936.44
2023-04-21T01:42:36.823Z,97926.31
2023-04-21T01:45:04.124Z,97933.38
2023-04-21T01:47:31.093Z,97931.03
2023-04-21T01:49:57.806Z,97934.28
2023-04-21T01:52:24.619Z,97930.13
2023-04-21T01:54:51.343Z,97937.63
2023-04-21T01:57:18.563Z,97946.19
2023-04-21T01:59:45.863Z,97944.25
2023-04-21T02:02:12.820Z,97940.88
2023-04-21T02:04:39.821Z,97949.31
2023-04-21T02:07:06.830Z,97947.22
2023-04-21T02:09:33.479Z,97948.13
2023-04-21T02:12:00.597Z,97937.19
2023-04-21T02:14:27.655Z,97948.22
2023-04-21T02:16:56.289Z,97940.50
2023-04-21T02:19:23.582Z,97945.34
2023-04-21T02:21:50.285Z,97939.09
2023-04-21T02:24:17.004Z,97929.94
2023-04-21T02:26:43.779Z,97939.66
2023-04-21T02:29:10.559Z,97941.25
2023-04-21T02:31:49.712Z,97921.06
2023-04-21T02:34:16.797Z,97922.53
2023-04-21T02:36:43.425Z,97937.63
2023-04-21T02:39:10.058Z,97934.22
2023-04-21T02:41:36.707Z,97938.53
2023-04-21T02:44:03.508Z,97945.28
2023-04-21T02:46:30.153Z,97938.53
2023-04-21T02:48:57.060Z,97934.91
2023-04-21T02:51:23.730Z,97952.31
2023-04-21T02:53:50.391Z,97951.16
2023-04-21T02:56:17.019Z,97949.13
2023-04-21T02:58:43.905Z,97953.41
2023-04-21T03:01:11.118Z,97953.41
2023-04-21T03:03:37.915Z,97950.84
2023-04-21T03:06:05.929Z,97939.88
2023-04-21T03:08:32.808Z,97941.56
2023-04-21T03:11:01.105Z,97943.16
2023-04-21T03:13:27.781Z,97936.38
2023-04-21T03:15:54.489Z,97936.69
2023-04-21T03:18:21.171Z,97940.78
2023-04-21T03:20:47.913Z,97933.72
2023-04-21T03:23:14.627Z,97926.16
2023-04-21T03:25:41.436Z,97917.72
2023-04-21T03:28:08.114Z,97911.84
2023-04-21T03:30:34.901Z,97913.22
2023-04-21T03:33:01.822Z,97907.81
2023-04-21T03:35:28.655Z,97910.38
2023-04-21T03:37:55.405Z,97915.31
2023-04-21T03:40:22.235Z,97919.28
2023-04-21T03:42:48.934Z,97920.09
2023-04-21T03:45:15.661Z,97919.78
2023-04-21T03:47:42.314Z,97922.38
2023-04-21T03:50:09.149Z,97922.56
2023-04-21T03:52:35.853Z,97924.72
2023-04-21T03:55:02.539Z,97930.50
2023-04-21T03:57:29.176Z,97926.75
2023-04-21T03:59:56.013Z,97921.94
2023-04-21T04:02:22.807Z,97938.03
2023-04-21T04:04:49.736Z,97933.28
2023-04-21T04:07:17.763Z,97934.09
2023-04-21T04:09:44.902Z,97933.53
2023-04-21T04:12:11.967Z,97934.00
2023-04-21T04:14:39.722Z,97939.38
2023-04-21T04:17:06.648Z,97935.66
2023-04-21T04:19:33.372Z,97935.66
2023-04-21T04:22:01.402Z,97937.91
2023-04-21T04:24:28.509Z,97938.59
2023-04-21T04:26:55.399Z,97936.47
2023-04-21T04:29:22.795Z,97942.19
2023-04-21T04:31:51.157Z,97939.16
2023-04-21T04:36:57.563Z,97932.63
2023-04-21T04:39:25.842Z,97929.69
2023-04-21T04:41:52.929Z,97926.66
2023-04-21T04:44:19.808Z,97937.81
2023-04-21T04:46:47.249Z,97938.84
2023-04-21T04:49:13.955Z,97941.09
2023-04-21T04:51:40.628Z,97943.78
2023-04-21T04:54:07.235Z,97944.34
2023-04-21T04:56:33.917Z,97943.13
2023-04-21T05:01:33.714Z,97958.78
2023-04-21T05:04:00.646Z,97955.28
2023-04-21T05:06:28.701Z,97952.91
2023-04-21T05:08:56.323Z,97963.16
2023-04-21T05:11:23.330Z,97960.81
2023-04-21T05:13:50.036Z,97960.91
2023-04-21T05:16:16.779Z,97961.94
2023-04-21T05:18:43.434Z,97958.66
2023-04-21T05:21:10.059Z,97965.88
2023-04-21T05:23:36.752Z,97961.47
2023-04-21T05:26:04.667Z,97968.78
2023-04-21T05:28:32.123Z,97980.75
2023-04-21T05:30:58.796Z,97984.56
2023-04-21T05:33:27.026Z,97998.66
2023-04-21T05:35:53.777Z,97989.28
2023-04-21T05:38:20.474Z,97984.91
2023-04-21T05:40:54.137Z,97977.50
2023-04-21T05:43:20.804Z,97976.94
2023-04-21T05:45:47.516Z,97971.25
2023-04-21T05:48:14.260Z,97977.59
2023-04-21T05:50:40.970Z,97977.13
2023-04-21T05:53:07.625Z,97981.63
2023-04-21T05:55:35.288Z,97965.38
2023-04-21T05:58:02.100Z,97959.59
2023-04-21T06:00:28.837Z,97956.91
2023-04-21T06:02:55.590Z,97961.28
2023-04-21T06:05:22.747Z,97955.16
2023-04-21T06:07:49.431Z,97966.09
2023-04-21T06:10:18.140Z,97953.63
2023-04-21T06:12:44.814Z,97944.03
2023-04-21T06:15:11.618Z,97952.69
2023-04-21T06:17:38.363Z,97939.72
2023-04-21T06:22:37.097Z,97949.81
2023-04-21T06:25:04.860Z,97947.13
2023-04-21T06:27:31.573Z,97943.72
2023-04-21T06:29:58.238Z,97944.97
2023-04-21T06:32:24.946Z,97936.22
2023-04-21T06:34:51.648Z,97948.72
2023-04-21T06:37:18.311Z,97956.53
2023-04-21T06:39:45.110Z,97963.25
2023-04-21T06:42:11.909Z,97969.72
2023-04-21T06:44:38.945Z,97981.56
2023-04-21T06:47:06.051Z,97975.53
2023-04-21T06:49:34.405Z,97980.94
2023-04-21T06:52:01.051Z,97969.97
2023-04-21T06:54:27.710Z,97967.22
2023-04-21T06:56:54.401Z,97969.19
2023-04-21T06:59:21.326Z,97964.22
2023-04-21T07:04:24.266Z,97955.69
2023-04-21T07:06:51.114Z,97960.13
2023-04-21T07:09:18.560Z,97963.50
2023-04-21T07:11:45.547Z,97953.34
2023-04-21T07:14:12.177Z,97941.34
2023-04-21T07:16:38.915Z,97948.16
2023-04-21T07:19:05.751Z,97942.44
2023-04-21T07:21:36.342Z,97943.38
2023-04-21T07:24:04.145Z,97936.56
2023-04-21T07:26:31.039Z,97928.34
2023-04-21T07:28:58.835Z,97930.34
2023-04-21T07:31:25.755Z,97923.84
2023-04-21T07:33:52.457Z,97925.34
2023-04-21T07:36:19.074Z,97926.06
2023-04-21T07:38:45.802Z,97927.56
2023-04-21T07:41:13.632Z,97916.59
2023-04-21T07:43:40.949Z,97913.88
2023-04-21T07:46:07.911Z,97921.38
2023-04-21T07:48:34.704Z,97927.78
2023-04-21T07:51:03.441Z,97920.84
2023-04-21T07:53:31.174Z,97920.97
2023-04-21T07:55:58.431Z,97919.53
2023-04-21T07:58:25.196Z,97926.47
2023-04-21T08:00:51.874Z,97918.03
2023-04-21T08:03:18.784Z,97915.66
2023-04-21T08:05:46.435Z,97917.28
2023-04-21T08:08:13.263Z,97925.25
2023-04-21T08:10:39.959Z,97926.75
2023-04-21T08:13:08.093Z,97918.25
2023-04-21T08:15:35.017Z,97925.28
2023-04-21T08:18:01.994Z,97922.63
2023-04-21T08:20:29.070Z,97924.03
2023-04-21T08:22:55.903Z,97921.53
2023-04-21T08:25:22.893Z,97923.72
2023-04-21T08:27:49.598Z,97927.34
2023-04-21T08:30:16.611Z,97918.19
2023-04-21T08:32:43.337Z,97921.38
2023-04-21T08:37:42.814Z,97926.44
2023-04-21T08:40:09.802Z,97923.22
2023-04-21T08:45:10.517Z,97924.16
2023-04-21T08:47:40.849Z,97922.03
2023-04-21T08:50:13.449Z,97919.81
2023-04-21T08:52:40.148Z,97922.22
2023-04-21T09:00:17.250Z,97918.69
2023-04-21T09:03:01.210Z,97914.75
2023-04-21T09:05:30.863Z,97900.69
2023-04-21T09:08:14.642Z,97898.75
2023-04-21T09:10:53.954Z,97900.69
2023-04-21T09:13:28.720Z,97899.88
2023-04-21T09:15:55.527Z,97888.53
2023-04-21T09:18:24.888Z,97889.31
2023-04-21T09:21:08.988Z,97892.81
2023-04-21T09:23:42.200Z,97881.84
2023-04-21T09:26:09.501Z,97890.69
2023-04-21T09:28:36.148Z,97889.34
2023-04-21T09:31:02.877Z,97892.50
2023-04-21T09:36:02.521Z,97890.34
2023-04-21T09:38:29.142Z,97879.81
2023-04-21T09:40:59.697Z,97893.81
2023-04-21T09:43:26.550Z,97891.09
2023-04-21T09:45:54.644Z,97885.03
2023-04-21T09:48:22.734Z,97888.63
2023-04-21T09:53:22.101Z,97889.31
2023-04-21T09:55:51.906Z,97878.66
2023-04-21T09:58:24.639Z,97884.81
2023-04-21T10:00:53.227Z,97878.78
2023-04-21T10:03:24.354Z,97873.06
2023-04-21T10:05:51.293Z,97876.97
2023-04-21T10:08:19.062Z,97875.47
2023-04-21T10:10:46.950Z,97861.31
2023-04-21T10:13:16.825Z,97860.38
2023-04-21T10:15:43.719Z,97854.81
2023-04-21T10:18:21.866Z,97837.91
2023-04-21T10:21:11.914Z,97835.19
2023-04-21T10:23:42.348Z,97836.66
2023-04-21T10:26:15.293Z,97839.25
2023-04-21T10:28:56.672Z,97835.41
2023-04-21T10:31:29.672Z,97837.41
2023-04-21T10:34:12.861Z,97841.00
2023-04-21T10:36:45.684Z,97838.84
2023-04-21T10:39:25.584Z,97829.72
2023-04-21T10:41:55.105Z,97827.19
2023-04-21T10:44:22.525Z,97828.34
2023-04-21T10:46:51.003Z,97829.44
2023-04-21T10:49:17.681Z,97829.47
2023-04-21T10:51:59.795Z,97839.50
2023-04-21T10:54:27.614Z,97826.63
2023-04-21T10:56:55.923Z,97836.59
2023-04-21T10:59:22.924Z,97830.03
2023-04-21T11:01:49.777Z,97830.22
2023-04-21T11:04:18.245Z,97829.31
2023-04-21T11:12:18.411Z,97816.94
2023-04-21T11:14:48.341Z,97818.50
2023-04-21T11:17:19.613Z,97821.09
2023-04-21T11:19:51.780Z,97822.41
2023-04-21T11:22:22.503Z,97821.09
2023-04-21T11:24:51.613Z,97809.25
2023-04-21T11:27:18.298Z,97819.13
2023-04-21T11:29:49.389Z,97808.66
2023-04-21T11:32:17.276Z,97809.94
2023-04-21T11:34:44.481Z,97807.22
2023-04-21T11:37:17.068Z,97799.34
2023-04-21T11:39:44.591Z,97793.97
2023-04-21T11:42:12.190Z,97805.47
2023-04-21T11:44:41.077Z,97788.75
2023-04-21T11:47:14.234Z,97799.34
2023-04-21T11:49:48.799Z,97788.16
2023-04-21T11:52:25.819Z,97788.03
2023-04-21T11:55:00.753Z,97793.84
2023-04-21T11:57:28.724Z,97781.94
2023-04-21T11:59:59.252Z,97782.59
2023-04-21T12:02:31.478Z,97783.28
2023-04-21T12:05:06.675Z,97775.50
2023-04-21T12:07:35.793Z,97774.53
2023-04-21T12:10:08.916Z,97769.50
2023-04-21T12:12:39.299Z,97771.41
2023-04-21T12:15:07.353Z,97766.72
2023-04-21T12:17:46.475Z,97764.19
2023-04-21T12:20:16.387Z,97770.75
2023-04-21T12:22:43.091Z,97774.56
2023-04-21T12:25:09.960Z,97764.19
2023-04-21T12:27:36.700Z,97768.72
2023-04-21T12:30:04.273Z,97762.13
2023-04-21T12:32:31.153Z,97762.75
2023-04-21T12:34:58.004Z,97759.94
2023-04-21T12:37:24.703Z,97753.47
2023-04-21T12:39:51.370Z,97758.97
2023-04-21T12:42:18.056Z,97743.25
2023-04-21T12:44:45.134Z,97739.50
2023-04-21T12:49:43.126Z,97732.72
2023-04-21T12:54:42.074Z,97731.06
2023-04-21T12:57:09.399Z,97729.06
2023-04-21T12:59:36.079Z,97717.66
2023-04-21T13:02:02.928Z,97716.88
2023-04-21T13:04:29.999Z,97709.66
2023-04-21T13:06:57.203Z,97708.31
2023-04-21T13:09:23.871Z,97709.41
2023-04-21T13:11:51.909Z,97715.28
2023-04-21T13:14:18.903Z,97710.31
2023-04-21T13:16:45.684Z,97706.44
2023-04-21T13:19:12.379Z,97702.94
2023-04-21T13:24:14.362Z,97703.31
2023-04-21T13:26:41.705Z,97704.81
2023-04-21T13:29:09.179Z,97707.19
2023-04-21T13:31:36.222Z,97700.47
2023-04-21T13:34:03.587Z,97691.25
2023-04-21T13:39:02.124Z,97690.13
2023-04-21T13:41:28.899Z,97689.94
2023-04-21T13:43:55.622Z,97676.34
2023-04-21T13:46:22.797Z,97676.44
2023-04-21T13:48:51.816Z,97672.63
2023-04-21T13:51:19.272Z,97674.66
2023-04-21T13:53:46.028Z,97675.38
2023-04-21T13:56:14.174Z,97679.94
2023-04-21T13:58:41.801Z,97675.38
2023-04-21T14:01:08.548Z,97672.34
2023-04-21T14:03:35.927Z,97679.44
2023-04-21T14:06:02.929Z,97678.06
2023-04-21T14:08:29.734Z,97678.00
2023-04-21T14:10:57.450Z,97675.44
2023-04-21T14:13:37.464Z,97660.72
2023-04-21T14:16:09.187Z,97672.44
2023-04-21T14:18:36.637Z,97665.81
2023-04-21T14:21:03.368Z,97658.22
2023-04-21T14:23:30.660Z,97647.50
2023-04-21T14:25:57.577Z,97646.59
2023-04-21T14:28:24.208Z,97643.13
2023-04-21T14:30:50.940Z,97644.31
2023-04-21T14:33:17.593Z,97644.53
2023-04-21T14:35:44.502Z,97637.34
2023-04-21T14:38:11.134Z,97635.09
2023-04-21T14:40:37.829Z,97626.59
2023-04-21T14:43:04.489Z,97623.94
2023-04-21T14:45:31.304Z,97625.25
2023-04-21T14:47:58.329Z,97623.94
2023-04-21T14:50:25.007Z,97609.44
2023-04-21T14:52:51.656Z,97604.41
2023-04-21T14:55:18.390Z,97607.84
2023-04-21T15:00:16.865Z,97610.19
2023-04-21T15:02:43.620Z,97616.72
2023-04-21T15:05:10.431Z,97610.53
2023-04-21T15:07:37.096Z,97613.41
2023-04-21T15:10:03.984Z,97609.53
2023-04-21T15:15:08.605Z,97605.13
2023-04-21T15:17:35.307Z,97602.69
2023-04-21T15:20:02.139Z,97604.13
2023-04-21T15:22:28.983Z,97601.56
2023-04-21T15:24:55.722Z,97606.22
2023-04-21T15:29:59.698Z,97598.16
2023-04-21T15:32:26.465Z,97601.91
2023-04-21T15:34:53.232Z,97600.44
2023-04-21T15:37:24.196Z,97596.13
2023-04-21T15:39:52.349Z,97597.25
2023-04-21T15:42:19.101Z,97594.59
2023-04-21T15:44:47.153Z,97616.63
2023-04-21T15:47:15.264Z,97603.53
2023-04-21T15:49:41.987Z,97596.13
2023-04-21T15:52:09.132Z,97593.94
2023-04-21T15:54:36.084Z,97595.81
2023-04-21T15:57:03.364Z,97593.25
2023-04-21T15:59:30.091Z,97594.03
2023-04-21T16:01:59.712Z,97590.84
2023-04-21T16:04:26.767Z,97589.72
2023-04-21T16:06:53.601Z,97586.19
2023-04-21T16:09:21.764Z,97591.47
2023-04-21T16:11:52.183Z,97583.75
2023-04-21T16:14:19.162Z,97584.94
2023-04-21T16:16:46.233Z,97584.16
2023-04-21T16:19:13.072Z,97590.91
2023-04-21T16:21:40.376Z,97582.31
2023-04-21T16:26:39.321Z,97582.72
2023-04-21T16:29:06.007Z,97579.41
2023-04-21T16:31:32.799Z,97579.97
2023-04-21T16:34:00.443Z,97577.06
2023-04-21T16:36:32.614Z,97576.53
2023-04-21T16:38:59.594Z,97566.09
2023-04-21T16:41:26.407Z,97571.06
2023-04-21T16:43:53.229Z,97577.63
2023-04-21T16:46:20.068Z,97575.81
2023-04-21T16:48:47.262Z,97570.56
2023-04-21T16:53:45.951Z,97562.19
2023-04-21T16:56:12.681Z,97563.28
2023-04-21T16:58:39.698Z,97572.13
2023-04-21T17:01:07.768Z,97575.75
2023-04-21T17:03:34.751Z,97573.50
2023-04-21T17:06:01.860Z,97571.28
2023-04-21T17:08:28.460Z,97574.66
2023-04-21T17:10:55.679Z,97576.22
2023-04-21T17:13:22.421Z,97574.78
2023-04-21T17:18:22.772Z,97567.53
2023-04-21T17:20:49.434Z,97564.25
2023-04-21T17:23:16.082Z,97568.72
2023-04-21T17:25:42.848Z,97570.97
2023-04-21T17:28:09.660Z,97574.84
2023-04-21T17:30:36.618Z,97563.97
2023-04-21T17:33:15.206Z,97583.53
2023-04-21T17:35:55.743Z,97580.25
2023-04-21T17:38:29.360Z,97581.13
2023-04-21T17:40:56.290Z,97593.78
2023-04-21T17:43:22.933Z,97594.63
2023-04-21T17:45:49.606Z,97601.06
2023-04-21T17:48:16.355Z,97594.16
2023-04-21T17:50:43.249Z,97595.63
2023-04-21T17:53:09.867Z,97604.91
2023-04-21T17:55:36.569Z,97600.16
2023-04-21T17:58:03.313Z,97602.91
2023-04-21T18:00:34.808Z,97608.91
2023-04-21T18:03:04.555Z,97610.22
2023-04-21T18:05:31.548Z,97607.94
2023-04-21T18:07:58.431Z,97604.19
2023-04-21T18:10:26.918Z,97605.03
2023-04-21T18:12:54.936Z,97610.91
2023-04-21T18:15:21.827Z,97622.56
2023-04-21T18:20:26.544Z,97619.38
2023-04-21T18:22:54.300Z,97626.09
2023-04-21T18:25:30.644Z,97623.75
2023-04-21T18:28:07.704Z,97628.34
2023-04-21T18:30:34.643Z,97633.31
2023-04-21T18:33:01.305Z,97636.84
2023-04-21T18:35:28.183Z,97634.16
2023-04-21T18:37:56.017Z,97634.38
2023-04-21T18:40:22.769Z,97647.66
2023-04-21T18:42:49.727Z,97648.47
2023-04-21T18:45:16.455Z,97649.47
2023-04-21T18:47:43.188Z,97647.72
2023-04-21T18:50:10.075Z,97656.84
2023-04-21T18:52:36.911Z,97654.53
2023-04-21T18:55:03.920Z,97668.19
2023-04-21T19:00:10.143Z,97663.06
2023-04-21T19:02:37.523Z,97669.00
2023-04-21T19:05:05.190Z,97677.25
2023-04-21T19:07:32.223Z,97676.34
2023-04-21T19:09:58.933Z,97689.03
2023-04-21T19:12:26.264Z,97690.72
2023-04-21T19:14:53.508Z,97690.03
2023-04-21T19:17:20.961Z,97698.03
2023-04-21T19:19:47.845Z,97707.53
2023-04-21T19:22:14.747Z,97697.06
2023-04-21T19:24:41.537Z,97701.50
2023-04-21T19:29:45.910Z,97687.34
2023-04-21T19:32:12.768Z,97688.25
2023-04-21T19:34:39.672Z,97693.13
2023-04-21T19:37:06.762Z,97701.88
2023-04-21T19:39:33.552Z,97695.59
2023-04-21T19:42:00.202Z,97698.66
2023-04-21T19:44:26.854Z,97700.84
2023-04-21T19:46:53.803Z,97703.75
2023-04-21T19:49:20.464Z,97705.66
2023-04-21T19:51:47.242Z,97710.25
2023-04-21T19:54:13.934Z,97720.09
2023-04-21T19:56:40.878Z,97713.09
2023-04-21T19:59:07.696Z,97705.06
2023-04-21T20:01:34.614Z,97703.00
2023-04-21T20:04:01.797Z,97698.28
2023-04-21T20:06:28.979Z,97699.81
2023-04-21T20:08:56.146Z,97705.94
2023-04-21T20:11:23.473Z,97700.94
2023-04-21T20:13:50.665Z,97703.75
2023-04-21T20:16:20.253Z,97702.19
2023-04-21T20:18:47.079Z,97703.06
2023-04-21T20:21:14.597Z,97703.56
2023-04-21T20:23:41.540Z,97712.28
2023-04-21T20:26:08.152Z,97708.13
2023-04-21T20:28:34.917Z,97705.06
2023-04-21T20:31:01.669Z,97701.41
2023-04-21T20:33:28.451Z,97702.63
2023-04-21T20:35:55.867Z,97710.25
2023-04-21T20:38:24.195Z,97704.22
2023-04-21T20:40:52.417Z,97712.78
2023-04-21T20:43:19.133Z,97706.66
2023-04-21T20:45:47.576Z,97712.09
2023-04-21T20:48:14.328Z,97702.34
2023-04-21T20:50:42.793Z,97705.16
2023-04-21T20:53:11.449Z,97702.44
2023-04-21T20:55:38.326Z,97710.78
2023-04-21T20:58:05.232Z,97712.41
2023-04-21T21:00:34.564Z,97714.50
2023-04-21T21:03:01.783Z,97714.41
2023-04-21T21:05:33.506Z,97708.84
2023-04-21T21:08:00.246Z,97706.91
2023-04-21T21:10:27.036Z,97710.44
2023-04-21T21:12:53.683Z,97705.84
2023-04-21T21:17:51.700Z,97707.09
2023-04-21T21:20:18.549Z,97709.91
2023-04-21T21:22:45.184Z,97706.03
2023-04-21T21:25:11.962Z,97705.66
2023-04-21T21:27:38.672Z,97705.59
2023-04-21T21:30:06.019Z,97703.28
2023-04-21T21:32:32.794Z,97705.56
2023-04-21T21:34:59.424Z,97696.94
2023-04-21T21:37:26.303Z,97702.69
2023-04-21T21:42:25.550Z,97696.56
2023-04-21T21:44:52.246Z,97691.03
2023-04-21T21:47:18.995Z,97690.97
2023-04-21T21:49:45.718Z,97690.16
2023-04-21T21:52:12.410Z,97685.50
2023-04-21T21:54:39.228Z,97690.16
2023-04-21T21:57:06.047Z,97693.19
2023-04-21T21:59:33.017Z,97692.41
2023-04-21T22:01:59.763Z,97692.56
2023-04-21T22:04:27.149Z,97695.00
2023-04-21T22:06:53.959Z,97683.22
2023-04-21T22:09:21.248Z,97687.97
2023-04-21T22:11:47.888Z,97688.03
2023-04-21T22:14:22.005Z,97680.94
2023-04-21T22:16:51.138Z,97687.22
2023-04-21T22:21:52.364Z,97686.44
2023-04-21T22:24:18.969Z,97694.31
2023-04-21T22:26:46.359Z,97699.84
2023-04-21T22:29:13.466Z,97699.03
2023-04-21T22:31:40.171Z,97706.09
2023-04-21T22:34:06.896Z,97705.38
2023-04-21T22:36:33.479Z,97701.38
2023-04-21T22:39:00.120Z,97707.69
2023-04-21T22:41:27.751Z,97706.94
2023-04-21T22:43:54.666Z,97695.94
2023-04-21T22:46:21.417Z,97701.13
2023-04-21T22:48:48.891Z,97699.22
2023-04-21T22:51:15.596Z,97700.00
2023-04-21T22:53:42.232Z,97701.47
2023-04-21T22:56:08.925Z,97699.16
2023-04-21T22:58:36.057Z,97700.75
2023-04-21T23:01:02.891Z,97702.28
2023-04-21T23:03:31.395Z,97693.69
2023-04-21T23:05:58.186Z,97693.69
2023-04-21T23:08:24.785Z,97698.78
2023-04-21T23:10:51.858Z,97697.63
2023-04-21T23:13:18.484Z,97694.53
2023-04-21T23:15:45.128Z,97695.31
2023-04-21T23:18:11.758Z,97687.13
2023-04-21T23:23:09.997Z,97698.09
2023-04-21T23:25:36.667Z,97692.97
2023-04-21T23:28:03.428Z,97703.91
2023-04-21T23:30:30.463Z,97703.19
2023-04-21T23:32:57.252Z,97688.72
2023-04-21T23:35:24.042Z,97691.41
2023-04-21T23:37:50.712Z,97695.72
2023-04-21T23:40:17.532Z,97694.97
2023-04-21T23:42:47.438Z,97692.19
2023-04-21T23:45:14.933Z,97689.00
2023-04-21T23:50:13.046Z,97680.91
2023-04-21T23:52:42.302Z,97679.34
2023-04-21T23:55:10.246Z,97684.44
2023-04-21T23:57:37.272Z,97684.47
